Aérodrome :
LOGIN :

S'inscrire | Disclaimer

   EN    FR    IT 

 










Légende :    VFR   VFR Marginal   IFR   IFR Intensif   IFR Très Intensif
Visi : 
Plafond : 
>= 8 km
>= 3000ft
5 à 8 km
1000 à 3000 ft
1500m à 5 km
500 à 1000 ft
800 à 1500m
200 à 500 ft
< 800m
< 200 ft
Symboles :   Orages  Brouillard  Fortes neiges  Fortes précipitations  Vent > 20 kt
SIGMETs :   Divers  Orages  Givrage  Turbulence  Onde Orograph.  Cendres Volcan.






- Altitude de l'aérodrome : 141 ft
- Code IATA : SKS


EKSP - Srydstrup Vojens

DERNIER METAR :
  • 290144Z 03020G32KT 340V060 8000 -SN FEW022 SCT032 BKN044 03/M03 Q1026

METARs EXPIRÉS :
  • 290126Z 03020G36KT 350V060 9999 -SN BKN035 SCT044 BKN050 04/M04 Q1026
  • 290120Z 02020G36KT 340V060 CAVOK 04/M04 Q1026 RMK BKN055 BKN080
  • 290050Z 36007KT 310V050 CAVOK 03/M03 Q1025 RMK FEW055 BKN080
  • 290020Z 36007KT 330V030 CAVOK 02/M03 Q1025 RMK BKN080
  • 282350Z 36008KT 320V050 CAVOK 03/M03 Q1025 RMK BKN080

TAF TAF EKSP
Valide du 29 à 00h jusqu'au 30 à 00h UTC


282302Z 2900/2924 36012KT 9999 FEW030
TEMPO 2900/2906 02018G33KT 6000 -SNRA
TEMPO 2906/2912 03018G30KT
TEMPO 2912/2916 02015G25KT
BECMG 2919/2921 28008KT



MET'MAP, la Météo Aéronautique d'un coup d'oeil ! - Copyright ORBIFLY Décembre 2007 - Disclaimer

ORBIFLY MET'MAP TEAM :

Programmation & Développement : Alexandra Zaïnal
Sur une idée originale de : Baudouin d'Aumeries
Assistance à la programmation : Marc-Olivier Méhu
Soutien technique & logistique : Manuel Goepfert

Contact : metmap@orbifly.com




SOURCES & CREDITS :

   NOAA